createdAt,value
2022-11-05T00:00:15.897Z,5.43
2022-11-05T00:03:01.090Z,7.57
2022-11-05T00:05:46.727Z,4.78
2022-11-05T00:10:59.243Z,10.40
2022-11-05T00:13:44.924Z,5.80
2022-11-05T00:16:30.692Z,6.38
2022-11-05T00:19:06.874Z,3.80
2022-11-05T00:21:54.048Z,5.07
2022-11-05T00:24:39.610Z,7.13
2022-11-05T00:29:34.929Z,4.43
2022-11-05T00:32:02.071Z,4.35
2022-11-05T00:34:28.960Z,9.77
2022-11-05T00:36:56.485Z,8.65
2022-11-05T00:39:23.416Z,8.10
2022-11-05T00:42:10.373Z,6.20
2022-11-05T00:44:57.449Z,7.07
2022-11-05T00:47:43.067Z,5.13
2022-11-05T00:50:11.045Z,8.02
2022-11-05T00:52:57.285Z,7.05
2022-11-05T00:55:38.974Z,13.63
2022-11-05T00:58:11.825Z,11.13
2022-11-05T01:00:41.710Z,8.43
2022-11-05T01:03:12.083Z,5.93
2022-11-05T01:05:44.407Z,10.02
2022-11-05T01:08:13.580Z,6.00
2022-11-05T01:10:44.926Z,10.05
2022-11-05T01:13:13.486Z,8.20
2022-11-05T01:15:41.854Z,13.50
2022-11-05T01:18:08.832Z,9.32
2022-11-05T01:20:35.609Z,7.15
2022-11-05T01:23:02.274Z,7.80
2022-11-05T01:25:29.746Z,8.82
2022-11-05T01:27:56.626Z,10.65
2022-11-05T01:30:23.793Z,8.00
2022-11-05T01:32:50.662Z,9.25
2022-11-05T01:35:18.705Z,11.32
2022-11-05T01:37:46.418Z,7.80
2022-11-05T01:40:16.410Z,9.57
2022-11-05T01:42:44.199Z,5.95
2022-11-05T01:45:14.369Z,8.15
2022-11-05T01:48:02.829Z,8.95
2022-11-05T01:50:40.651Z,5.68
2022-11-05T01:53:10.735Z,6.88
2022-11-05T01:55:46.186Z,5.75
2022-11-05T01:58:19.360Z,6.03
2022-11-05T02:00:49.720Z,8.55
2022-11-05T02:03:18.757Z,6.65
2022-11-05T02:05:48.093Z,8.48
2022-11-05T02:08:47.209Z,9.82
2022-11-05T02:11:17.491Z,9.15
2022-11-05T02:13:44.937Z,5.40
2022-11-05T02:16:39.404Z,12.20
2022-11-05T02:19:31.865Z,6.88
2022-11-05T02:22:23.537Z,8.82
2022-11-05T02:25:19.521Z,6.78
2022-11-05T02:28:16.931Z,9.50
2022-11-05T02:30:56.640Z,8.70
2022-11-05T02:33:48.295Z,9.50
2022-11-05T02:36:20.911Z,7.10
2022-11-05T02:38:58.744Z,10.95
2022-11-05T02:41:39.150Z,8.15
2022-11-05T02:44:24.142Z,9.18
2022-11-05T02:47:17.868Z,6.93
2022-11-05T02:49:52.137Z,8.18
2022-11-05T02:52:28.752Z,7.57
2022-11-05T02:55:09.249Z,5.65
2022-11-05T02:57:47.405Z,10.88
2022-11-05T03:00:41.072Z,6.40
2022-11-05T03:03:15.355Z,8.50
2022-11-05T03:06:13.041Z,12.05
2022-11-05T03:08:48.377Z,8.85
2022-11-05T03:11:19.665Z,12.25
2022-11-05T03:13:47.876Z,12.95
2022-11-05T03:16:38.821Z,7.15
2022-11-05T03:19:18.204Z,9.20
2022-11-05T03:21:48.636Z,13.65
2022-11-05T03:24:24.405Z,8.05
2022-11-05T03:26:57.540Z,14.23
2022-11-05T03:29:41.138Z,10.00
2022-11-05T03:32:11.121Z,7.22
2022-11-05T03:34:50.826Z,8.85
2022-11-05T03:37:21.568Z,12.35
2022-11-05T03:39:53.548Z,8.88
2022-11-05T03:42:26.137Z,8.05
2022-11-05T03:44:56.984Z,8.52
2022-11-05T03:47:30.435Z,9.07
2022-11-05T03:50:20.497Z,10.73
2022-11-05T03:52:59.341Z,9.68
2022-11-05T03:55:59.305Z,6.40
2022-11-05T03:58:27.313Z,10.52
2022-11-05T04:00:54.199Z,8.27
2022-11-05T04:03:21.287Z,8.15
2022-11-05T04:06:08.446Z,6.72
2022-11-05T04:08:53.704Z,8.20
2022-11-05T04:11:39.486Z,8.00
2022-11-05T04:14:06.340Z,13.20
2022-11-05T04:16:52.021Z,8.15
2022-11-05T04:19:38.715Z,15.68
2022-11-05T04:22:24.150Z,12.25
2022-11-05T04:24:53.814Z,9.95
2022-11-05T04:27:20.649Z,9.75
2022-11-05T04:30:06.470Z,9.02
2022-11-05T04:32:33.381Z,6.68
2022-11-05T04:35:00.173Z,8.05
2022-11-05T04:37:27.171Z,10.75
2022-11-05T04:39:53.989Z,9.15
2022-11-05T04:42:20.832Z,10.18
2022-11-05T04:44:47.714Z,10.98
2022-11-05T04:47:14.460Z,7.07
2022-11-05T04:49:41.349Z,8.35
2022-11-05T04:52:08.265Z,10.15
2022-11-05T04:54:35.061Z,9.70
2022-11-05T04:57:01.646Z,7.57
2022-11-05T04:59:28.505Z,7.03
2022-11-05T05:01:55.391Z,5.78
2022-11-05T05:04:22.262Z,7.93
2022-11-05T05:06:49.039Z,11.18
2022-11-05T05:09:16.041Z,12.63
2022-11-05T05:11:42.945Z,11.05
2022-11-05T05:14:09.786Z,9.52
2022-11-05T05:16:36.608Z,8.20
2022-11-05T05:19:06.448Z,11.63
2022-11-05T05:21:39.626Z,10.40
2022-11-05T05:24:08.997Z,6.72
2022-11-05T05:26:38.066Z,7.93
2022-11-05T05:29:06.352Z,10.23
2022-11-05T05:31:33.602Z,11.05
2022-11-05T05:34:00.548Z,8.45
2022-11-05T05:36:27.640Z,7.80
2022-11-05T05:38:54.634Z,11.38
2022-11-05T05:41:21.837Z,11.60
2022-11-05T05:43:48.936Z,8.90
2022-11-05T05:46:17.346Z,11.32
2022-11-05T05:48:48.036Z,8.93
2022-11-05T05:51:14.717Z,15.07
2022-11-05T05:53:41.569Z,11.82
2022-11-05T05:56:08.523Z,10.48
2022-11-05T05:58:38.538Z,13.70
2022-11-05T06:01:10.995Z,10.15
2022-11-05T06:03:41.624Z,12.38
2022-11-05T06:06:11.113Z,9.00
2022-11-05T06:08:37.879Z,12.23
2022-11-05T06:11:05.747Z,12.73
2022-11-05T06:13:33.076Z,10.95
2022-11-05T06:16:02.393Z,6.65
2022-11-05T06:18:30.706Z,8.52
2022-11-05T06:21:09.224Z,10.57
2022-11-05T06:23:38.209Z,12.20
2022-11-05T06:26:07.300Z,12.25
2022-11-05T06:28:34.580Z,6.43
2022-11-05T06:31:02.562Z,10.40
2022-11-05T06:33:29.724Z,7.45
2022-11-05T06:36:00.882Z,9.23
2022-11-05T06:38:29.468Z,11.82
2022-11-05T06:40:58.670Z,8.63
2022-11-05T06:43:26.533Z,8.32
2022-11-05T06:45:53.266Z,6.22
2022-11-05T06:48:19.926Z,9.90
2022-11-05T06:50:47.880Z,10.25
2022-11-05T06:53:15.620Z,9.52
2022-11-05T06:55:44.904Z,7.25
2022-11-05T06:58:11.809Z,6.10
2022-11-05T07:00:39.106Z,8.27
2022-11-05T07:03:07.529Z,6.18
2022-11-05T07:05:36.905Z,6.60
2022-11-05T07:08:03.876Z,10.23
2022-11-05T07:10:30.793Z,9.65
2022-11-05T07:12:57.665Z,10.85
2022-11-05T07:15:24.608Z,12.55
2022-11-05T07:17:56.484Z,7.57
2022-11-05T07:20:23.174Z,8.98
2022-11-05T07:22:49.914Z,13.38
2022-11-05T07:25:16.648Z,11.10
2022-11-05T07:27:43.900Z,11.43
2022-11-05T07:30:10.945Z,11.38
2022-11-05T07:32:39.786Z,7.85
2022-11-05T07:35:08.493Z,9.23
2022-11-05T07:37:45.733Z,7.43
2022-11-05T07:40:13.972Z,6.75
2022-11-05T07:42:48.492Z,10.02
2022-11-05T07:45:15.990Z,7.57
2022-11-05T07:47:51.082Z,6.78
2022-11-05T07:50:19.486Z,9.63
2022-11-05T07:52:50.322Z,10.02
2022-11-05T07:55:18.381Z,9.95
2022-11-05T07:57:47.685Z,7.85
2022-11-05T08:00:22.891Z,9.32
2022-11-05T08:05:37.150Z,9.02
2022-11-05T08:08:04.717Z,12.00
2022-11-05T08:10:31.604Z,5.97
2022-11-05T08:12:58.443Z,6.88
2022-11-05T08:15:25.667Z,10.43
2022-11-05T08:18:06.080Z,9.63
2022-11-05T08:20:33.991Z,13.43
2022-11-05T08:23:01.037Z,9.63
2022-11-05T08:25:27.937Z,7.78
2022-11-05T08:28:00.248Z,8.50
2022-11-05T08:30:27.421Z,6.97
2022-11-05T08:33:03.325Z,8.65
2022-11-05T08:35:30.326Z,13.35
2022-11-05T08:38:02.992Z,8.27
2022-11-05T08:40:32.494Z,16.33
2022-11-05T08:43:00.477Z,9.98
2022-11-05T08:45:30.377Z,9.60
2022-11-05T08:48:01.392Z,9.98
2022-11-05T08:50:28.772Z,9.60
2022-11-05T08:52:55.730Z,11.10
2022-11-05T08:55:22.847Z,14.50
2022-11-05T08:57:55.794Z,8.35
2022-11-05T09:00:22.601Z,7.10
2022-11-05T09:02:49.327Z,9.82
2022-11-05T09:05:16.322Z,9.00
2022-11-05T09:07:43.715Z,7.93
2022-11-05T09:10:11.115Z,6.13
2022-11-05T09:12:38.008Z,10.48
2022-11-05T09:15:05.912Z,9.85
2022-11-05T09:17:32.946Z,8.18
2022-11-05T09:19:59.652Z,9.50
2022-11-05T09:22:26.486Z,14.30
2022-11-05T09:24:53.274Z,8.75
2022-11-05T09:27:20.066Z,16.73
2022-11-05T09:29:46.937Z,11.32
2022-11-05T09:32:15.880Z,17.27
2022-11-05T09:34:44.969Z,8.52
2022-11-05T09:37:12.351Z,14.18
2022-11-05T09:39:39.112Z,8.50
2022-11-05T09:42:09.318Z,12.63
2022-11-05T09:44:45.294Z,10.60
2022-11-05T09:47:21.404Z,9.68
2022-11-05T09:49:51.757Z,12.02
2022-11-05T09:52:30.961Z,15.88
2022-11-05T09:54:58.648Z,15.35
2022-11-05T09:57:45.130Z,17.90
2022-11-05T10:00:17.048Z,13.75
2022-11-05T10:02:49.340Z,18.20
2022-11-05T10:05:17.210Z,22.10
2022-11-05T10:07:59.529Z,12.93
2022-11-05T10:10:29.297Z,15.07
2022-11-05T10:13:09.240Z,21.90
2022-11-05T10:16:01.820Z,15.68
2022-11-05T10:18:34.688Z,17.50
2022-11-05T10:21:01.634Z,15.35
2022-11-05T10:23:29.122Z,16.67
2022-11-05T10:26:01.828Z,23.17
2022-11-05T10:28:31.647Z,15.45
2022-11-05T10:31:05.031Z,15.30
2022-11-05T10:33:47.306Z,20.98
2022-11-05T10:36:29.909Z,18.58
2022-11-05T10:39:17.798Z,15.15
2022-11-05T10:41:50.705Z,15.18
2022-11-05T10:44:23.500Z,18.77
2022-11-05T10:47:32.793Z,17.63
2022-11-05T10:50:09.859Z,19.80
2022-11-05T10:52:40.147Z,22.80
2022-11-05T10:55:21.981Z,17.27
2022-11-05T10:57:52.296Z,17.45
2022-11-05T11:00:25.641Z,15.13
2022-11-05T11:02:56.107Z,16.75
2022-11-05T11:05:30.930Z,15.57
2022-11-05T11:08:02.523Z,13.27
2022-11-05T11:10:33.134Z,16.33
2022-11-05T11:13:00.141Z,19.70
2022-11-05T11:15:32.858Z,15.60
2022-11-05T11:18:24.873Z,14.10
2022-11-05T11:20:51.802Z,20.15
2022-11-05T11:23:18.801Z,16.27
2022-11-05T11:25:48.366Z,13.27
2022-11-05T11:28:41.673Z,11.25
2022-11-05T11:31:13.154Z,12.30
2022-11-05T11:33:44.894Z,14.55
2022-11-05T11:36:13.487Z,12.68
2022-11-05T11:38:40.835Z,12.63
2022-11-05T11:41:42.144Z,14.70
2022-11-05T11:44:26.981Z,14.05
2022-11-05T11:47:01.141Z,14.45
2022-11-05T11:50:00.707Z,12.33
2022-11-05T11:52:32.930Z,17.20
2022-11-05T11:55:12.061Z,10.48
2022-11-05T11:58:06.299Z,14.60
2022-11-05T12:00:41.609Z,9.75
2022-11-05T12:03:15.043Z,12.95
2022-11-05T12:05:45.223Z,11.77
2022-11-05T12:09:07.168Z,12.45
2022-11-05T12:11:45.689Z,11.20
2022-11-05T12:14:30.794Z,8.77
2022-11-05T12:17:29.975Z,11.43
2022-11-05T12:19:56.621Z,7.28
2022-11-05T12:22:34.718Z,7.75
2022-11-05T12:25:10.767Z,9.32
2022-11-05T12:28:19.145Z,11.95
2022-11-05T12:31:05.881Z,10.18
2022-11-05T12:34:14.814Z,10.50
2022-11-05T12:36:56.066Z,13.05
2022-11-05T12:39:48.252Z,8.23
2022-11-05T12:42:38.278Z,19.95
2022-11-05T12:45:22.637Z,8.18
2022-11-05T12:47:57.294Z,6.82
2022-11-05T12:50:42.396Z,7.55
2022-11-05T12:53:41.573Z,9.05
2022-11-05T12:56:26.179Z,9.10
2022-11-05T12:59:18.048Z,8.63
2022-11-05T13:01:56.043Z,7.55
2022-11-05T13:05:01.233Z,10.50
2022-11-05T13:07:36.513Z,5.85
2022-11-05T13:10:06.257Z,8.65
2022-11-05T13:12:38.093Z,7.97
2022-11-05T13:15:13.834Z,5.40
2022-11-05T13:17:46.281Z,4.90
2022-11-05T13:20:18.092Z,5.10
2022-11-05T13:22:48.356Z,5.10
2022-11-05T13:25:21.375Z,6.07
2022-11-05T13:27:52.202Z,11.55
2022-11-05T13:30:23.011Z,4.18
2022-11-05T13:33:03.191Z,6.45
2022-11-05T13:35:37.302Z,5.07
2022-11-05T13:38:27.940Z,4.73
2022-11-05T13:41:03.122Z,4.10
2022-11-05T13:46:48.215Z,5.38
2022-11-05T13:49:30.156Z,5.97
2022-11-05T13:52:26.103Z,7.95
2022-11-05T13:57:31.641Z,4.07
2022-11-05T14:00:17.194Z,3.38
2022-11-05T14:05:41.559Z,5.97
2022-11-05T14:08:11.366Z,3.63
2022-11-05T14:10:42.300Z,3.05
2022-11-05T14:13:31.610Z,3.55
2022-11-05T14:16:04.590Z,8.65
2022-11-05T14:18:37.615Z,3.40
2022-11-05T14:21:06.942Z,2.80
2022-11-05T14:23:40.143Z,3.25
2022-11-05T14:26:19.615Z,4.50
2022-11-05T14:28:50.000Z,8.13
2022-11-05T14:31:19.833Z,9.57
2022-11-05T14:33:59.951Z,3.60
2022-11-05T14:36:32.284Z,3.60
2022-11-05T14:39:21.417Z,2.60
2022-11-05T14:42:06.674Z,8.90
2022-11-05T14:44:35.572Z,6.25
2022-11-05T14:47:06.190Z,7.05
2022-11-05T14:49:38.481Z,5.32
2022-11-05T14:52:09.300Z,12.27
2022-11-05T14:54:52.896Z,4.32
2022-11-05T14:57:51.966Z,3.55
2022-11-05T15:00:40.761Z,3.78
2022-11-05T15:03:32.442Z,9.27
2022-11-05T15:06:08.328Z,4.80
2022-11-05T15:08:38.341Z,4.88
2022-11-05T15:11:14.678Z,5.15
2022-11-05T15:13:51.613Z,5.90
2022-11-05T15:16:24.525Z,8.25
2022-11-05T15:18:54.230Z,7.13
2022-11-05T15:21:22.062Z,6.72
2022-11-05T15:23:53.370Z,7.05
2022-11-05T15:26:54.288Z,2.90
2022-11-05T15:29:25.182Z,4.88
2022-11-05T15:31:53.316Z,8.35
2022-11-05T15:34:23.073Z,3.70
2022-11-05T15:37:01.682Z,5.30
2022-11-05T15:39:38.698Z,4.85
2022-11-05T15:42:13.799Z,3.83
2022-11-05T15:47:22.085Z,6.60
2022-11-05T15:50:01.477Z,8.80
2022-11-05T15:52:36.628Z,6.53
2022-11-05T15:55:19.038Z,6.60
2022-11-05T15:57:52.038Z,7.80
2022-11-05T16:00:25.322Z,7.68
2022-11-05T16:03:02.105Z,8.82
2022-11-05T16:05:33.080Z,8.45
2022-11-05T16:08:01.944Z,7.20
2022-11-05T16:10:31.490Z,6.10
2022-11-05T16:13:22.111Z,13.10
2022-11-05T16:15:57.570Z,6.60
2022-11-05T16:18:29.757Z,6.80
2022-11-05T16:21:22.929Z,6.82
2022-11-05T16:23:49.820Z,6.95
2022-11-05T16:29:47.473Z,10.10
2022-11-05T16:32:31.092Z,6.90
2022-11-05T16:35:01.488Z,11.52
2022-11-05T16:37:32.463Z,7.90
2022-11-05T16:39:59.460Z,10.57
2022-11-05T16:42:36.490Z,10.52
2022-11-05T16:45:03.985Z,8.38
2022-11-05T16:47:32.249Z,12.48
2022-11-05T16:49:59.495Z,12.18
2022-11-05T16:52:26.417Z,12.65
2022-11-05T16:54:53.495Z,14.23
2022-11-05T16:57:24.338Z,11.73
2022-11-05T16:59:51.165Z,12.57
2022-11-05T17:02:17.974Z,15.00
2022-11-05T17:04:45.376Z,14.43
2022-11-05T17:07:12.255Z,14.10
2022-11-05T17:09:39.423Z,23.00
2022-11-05T17:12:06.492Z,24.88
2022-11-05T17:14:35.907Z,22.23
2022-11-05T17:17:03.563Z,19.10
2022-11-05T17:19:30.568Z,16.35
2022-11-05T17:21:57.813Z,19.98
2022-11-05T17:24:24.570Z,13.65
2022-11-05T17:26:51.432Z,12.13
2022-11-05T17:29:18.227Z,9.93
2022-11-05T17:31:45.194Z,11.90
2022-11-05T17:34:12.291Z,11.57
2022-11-05T17:36:39.306Z,13.30
2022-11-05T17:39:06.354Z,17.80
2022-11-05T17:41:33.299Z,14.55
2022-11-05T17:44:00.830Z,12.40
2022-11-05T17:46:34.501Z,9.52
2022-11-05T17:49:01.361Z,19.50
2022-11-05T17:51:28.287Z,10.18
2022-11-05T17:53:55.181Z,14.45
2022-11-05T17:56:32.555Z,15.35
2022-11-05T17:59:02.102Z,15.68
2022-11-05T18:01:32.904Z,16.38
2022-11-05T18:04:05.417Z,18.17
2022-11-05T18:06:36.255Z,19.13
2022-11-05T18:09:03.979Z,14.95
2022-11-05T18:11:31.538Z,13.38
2022-11-05T18:13:58.355Z,14.80
2022-11-05T18:16:25.434Z,13.00
2022-11-05T18:18:52.302Z,15.73
2022-11-05T18:21:19.385Z,14.18
2022-11-05T18:23:46.227Z,13.55
2022-11-05T18:26:15.502Z,21.38
2022-11-05T18:28:42.700Z,24.63
2022-11-05T18:31:18.026Z,15.77
2022-11-05T18:33:45.565Z,15.32
2022-11-05T18:36:20.401Z,21.05
2022-11-05T18:38:47.630Z,17.40
2022-11-05T18:41:14.762Z,15.02
2022-11-05T18:43:41.663Z,12.95
2022-11-05T18:46:08.635Z,19.65
2022-11-05T18:48:37.438Z,13.25
2022-11-05T18:51:09.258Z,13.82
2022-11-05T18:53:36.378Z,13.52
2022-11-05T18:56:15.523Z,18.58
2022-11-05T18:58:42.890Z,14.57
2022-11-05T19:01:18.258Z,20.00
2022-11-05T19:03:45.924Z,11.10
2022-11-05T19:06:13.589Z,12.25
2022-11-05T19:08:40.306Z,10.52
2022-11-05T19:11:10.477Z,22.35
2022-11-05T19:13:37.481Z,14.63
2022-11-05T19:16:09.433Z,12.18
2022-11-05T19:18:37.277Z,17.92
2022-11-05T19:21:12.082Z,11.00
2022-11-05T19:23:39.645Z,14.88
2022-11-05T19:26:17.470Z,20.20
2022-11-05T19:28:44.796Z,15.75
2022-11-05T19:31:15.058Z,12.25
2022-11-05T19:33:43.274Z,13.02
2022-11-05T19:36:11.658Z,14.23
2022-11-05T19:38:38.758Z,17.35
2022-11-05T19:41:10.584Z,20.13
2022-11-05T19:43:39.284Z,15.07
2022-11-05T19:46:13.336Z,17.40
2022-11-05T19:48:40.745Z,16.48
2022-11-05T19:51:10.054Z,11.02
2022-11-05T19:53:38.461Z,13.98
2022-11-05T19:56:22.570Z,11.60
2022-11-05T19:58:49.838Z,14.73
2022-11-05T20:01:18.494Z,13.38
2022-11-05T20:03:46.399Z,11.45
2022-11-05T20:06:19.870Z,9.90
2022-11-05T20:09:15.221Z,14.73
2022-11-05T20:11:37.476Z,12.80
2022-11-05T20:14:05.096Z,10.50
2022-11-05T20:16:38.010Z,14.68
2022-11-05T20:19:13.969Z,14.00
2022-11-05T20:21:41.003Z,12.30
2022-11-05T20:24:08.382Z,13.98
2022-11-05T20:26:35.343Z,13.65
2022-11-05T20:29:02.341Z,18.75
2022-11-05T20:31:29.318Z,9.80
2022-11-05T20:33:56.894Z,8.68
2022-11-05T20:36:25.767Z,12.40
2022-11-05T20:38:55.553Z,10.82
2022-11-05T20:41:23.630Z,12.65
2022-11-05T20:43:51.234Z,14.23
2022-11-05T20:46:20.587Z,13.23
2022-11-05T20:48:47.437Z,15.02
2022-11-05T20:51:20.622Z,16.90
2022-11-05T20:53:48.997Z,11.50
2022-11-05T20:56:21.707Z,10.07
2022-11-05T20:58:49.138Z,8.55
2022-11-05T21:01:16.913Z,7.40
2022-11-05T21:03:45.340Z,7.47
2022-11-05T21:06:12.938Z,16.55
2022-11-05T21:08:40.264Z,6.10
2022-11-05T21:11:07.556Z,16.85
2022-11-05T21:13:34.883Z,11.13
2022-11-05T21:16:02.686Z,9.38
2022-11-05T21:18:31.633Z,10.77
2022-11-05T21:21:00.612Z,11.57
2022-11-05T21:23:28.708Z,7.93
2022-11-05T21:25:55.825Z,9.88
2022-11-05T21:28:22.862Z,15.57
2022-11-05T21:30:49.797Z,7.22
2022-11-05T21:33:18.570Z,12.52
2022-11-05T21:35:48.262Z,19.45
2022-11-05T21:38:16.948Z,11.82
2022-11-05T21:40:45.338Z,9.80
2022-11-05T21:43:13.272Z,16.17
2022-11-05T21:45:41.807Z,8.70
2022-11-05T21:48:09.883Z,12.52
2022-11-05T21:51:14.274Z,9.10
2022-11-05T21:53:59.774Z,10.75
2022-11-05T21:59:33.696Z,7.47
2022-11-05T22:02:03.755Z,9.05
2022-11-05T22:04:32.489Z,8.90
2022-11-05T22:06:59.269Z,13.95
2022-11-05T22:09:26.612Z,9.02
2022-11-05T22:11:54.123Z,17.83
2022-11-05T22:14:21.479Z,11.25
2022-11-05T22:16:48.362Z,8.93
2022-11-05T22:19:15.674Z,10.52
2022-11-05T22:21:42.680Z,7.80
2022-11-05T22:24:09.924Z,12.25
2022-11-05T22:26:38.542Z,10.63
2022-11-05T22:29:06.304Z,8.45
2022-11-05T22:31:36.220Z,10.55
2022-11-05T22:34:04.567Z,5.90
2022-11-05T22:36:32.722Z,10.65
2022-11-05T22:38:59.683Z,9.70
2022-11-05T22:41:27.091Z,8.85
2022-11-05T22:43:54.114Z,11.75
2022-11-05T22:46:23.630Z,14.00
2022-11-05T22:48:50.762Z,7.95
2022-11-05T22:51:23.162Z,4.75
2022-11-05T22:53:50.530Z,7.65
2022-11-05T22:56:20.334Z,12.48
2022-11-05T22:58:47.716Z,12.20
2022-11-05T23:01:16.065Z,8.38
2022-11-05T23:03:44.765Z,7.70
2022-11-05T23:06:50.998Z,12.55
2022-11-05T23:12:28.931Z,5.25
2022-11-05T23:14:58.050Z,10.48
2022-11-05T23:17:44.442Z,10.60
2022-11-05T23:20:39.488Z,10.52
2022-11-05T23:23:28.918Z,10.02
2022-11-05T23:26:00.255Z,8.15
2022-11-05T23:28:27.186Z,11.95
2022-11-05T23:31:13.054Z,9.02
2022-11-05T23:33:40.015Z,7.70
2022-11-05T23:36:25.602Z,9.35
2022-11-05T23:41:37.790Z,8.68
2022-11-05T23:47:08.580Z,12.23
2022-11-05T23:49:35.317Z,11.05
2022-11-05T23:52:02.219Z,8.32
2022-11-05T23:54:29.672Z,8.52
2022-11-05T23:56:56.657Z,9.35
2022-11-05T23:59:23.412Z,6.85
